This is the latest recevied weather packets stored in our database for station/object VA3JLF-1. If no packets are shown the sender has not sent any weather packets the latest 10 day(s).
| Time | Temp. | Humidity | Pressure | Rain* | Wind** | Luminosity | Snow |
|---|---|---|---|---|---|---|---|
| 1777903558 | 13.33° C | 69% | 1002.5 hPa | 0 mm | - | - | - |
| 1777902958 | 14.44° C | 65% | 1002.5 hPa | 0 mm | - | - | - |
| 1777902358 | 13.89° C | 65% | 1002.4 hPa | 0 mm | - | - | - |
| 1777901758 | 13.33° C | 66% | 1002.7 hPa | 0 mm | - | - | - |
| 1777901158 | 12.78° C | 67% | 1002.7 hPa | 0 mm | - | - | - |
| 1777900558 | 12.22° C | 73% | 1003.1 hPa | 0 mm | - | - | - |
| 1777899958 | 12.22° C | 69% | 1002.6 hPa | 0 mm | - | - | - |
| 1777899358 | 12.22° C | 69% | 1003 hPa | 0 mm | - | - | - |
| 1777898758 | 12.22° C | 73% | 1003 hPa | 0 mm | - | - | - |
| 1777898158 | 11.11° C | 74% | 1003.1 hPa | 0 mm | - | - | - |
| 1777897560 | 10° C | 76% | 1003.3 hPa | 0 mm | - | - | - |
| 1777896958 | 8.89° C | 82% | 1003.2 hPa | 0 mm | - | - | - |
| 1777896361 | 7.78° C | 84% | 1003.1 hPa | 0 mm | - | - | - |
| 1777896358 | 7.78° C | 84% | 1003.1 hPa | 0 mm | - | - | - |
| 1777895758 | 7.78° C | 86% | 1003.3 hPa | 0 mm | - | - | - |
| 1777895158 | 7.78° C | 85% | 1003.1 hPa | 0 mm | - | - | - |
| 1777894558 | 7.78° C | 84% | 1003.1 hPa | 0 mm | - | - | - |
| 1777893958 | 7.78° C | 83% | 1003 hPa | 0 mm | - | - | - |
| 1777893358 | 7.78° C | 83% | 1003 hPa | 0 mm | - | - | - |
| 1777892758 | 8.33° C | 83% | 1002.8 hPa | 0 mm | - | - | - |
| 1777892158 | 8.33° C | 83% | 1003 hPa | 0 mm | - | - | - |
| 1777891559 | 8.33° C | 82% | 1003 hPa | 0 mm | - | - | - |
| 1777890959 | 8.33° C | 82% | 1002.7 hPa | 0 mm | - | - | - |
| 1777890358 | 8.33° C | 83% | 1002.8 hPa | 0 mm | - | - | - |
| 1777889759 | 7.78° C | 84% | 1002.6 hPa | 0 mm | - | - | - |
* Rain latest hour (hover to see other rain measurements)
** Current wind speed in m/s (hover to see current wind gust speed)